createdAt,value
2023-08-11T00:00:52.723Z,99000.66
2023-08-11T00:03:19.535Z,99005.28
2023-08-11T00:05:46.898Z,98999.97
2023-08-11T00:08:14.453Z,99003.59
2023-08-11T00:10:42.030Z,99007.50
2023-08-11T00:13:13.783Z,99000.88
2023-08-11T00:15:41.246Z,99001.41
2023-08-11T00:18:11.381Z,99001.66
2023-08-11T00:20:38.598Z,99006.91
2023-08-11T00:23:06.037Z,99004.75
2023-08-11T00:25:33.027Z,99013.28
2023-08-11T00:28:02.310Z,99002.56
2023-08-11T00:30:28.999Z,99014.50
2023-08-11T00:32:55.833Z,99009.69
2023-08-11T00:35:25.595Z,99008.50
2023-08-11T00:37:52.299Z,99006.69
2023-08-11T00:40:19.306Z,99009.09
2023-08-11T00:42:46.846Z,99007.53
2023-08-11T00:45:13.816Z,99017.00
2023-08-11T00:47:43.206Z,99013.03
2023-08-11T00:50:15.064Z,99008.81
2023-08-11T00:52:45.686Z,99009.03
2023-08-11T00:55:14.111Z,99013.16
2023-08-11T00:57:42.112Z,99011.09
2023-08-11T01:00:16.731Z,99009.59
2023-08-11T01:02:46.103Z,99006.69
2023-08-11T01:05:16.995Z,98992.63
2023-08-11T01:08:13.468Z,98994.84
2023-08-11T01:11:34.608Z,98999.59
2023-08-11T01:14:16.677Z,98999.09
2023-08-11T01:16:49.285Z,98990.38
2023-08-11T01:19:29.649Z,98989.69
2023-08-11T01:22:00.942Z,98991.72
2023-08-11T01:24:32.585Z,98986.91
2023-08-11T01:27:00.068Z,98981.25
2023-08-11T01:29:27.523Z,98979.31
2023-08-11T01:31:54.318Z,98983.69
2023-08-11T01:34:22.416Z,98972.13
2023-08-11T01:37:05.383Z,98975.13
2023-08-11T01:39:33.197Z,98971.59
2023-08-11T01:41:59.917Z,98971.97
2023-08-11T01:44:26.973Z,98971.72
2023-08-11T01:46:57.532Z,98970.56
2023-08-11T01:49:28.188Z,98967.06
2023-08-11T01:51:57.240Z,98969.81
2023-08-11T01:54:24.729Z,98971.38
2023-08-11T01:56:52.848Z,98970.56
2023-08-11T01:59:19.539Z,98968.97
2023-08-11T02:01:46.338Z,98970.41
2023-08-11T02:04:14.026Z,98965.03
2023-08-11T02:06:41.686Z,98975.13
2023-08-11T02:09:13.625Z,98970.19
2023-08-11T02:11:40.694Z,98967.44
2023-08-11T02:14:07.470Z,98969.59
2023-08-11T02:16:34.783Z,98972.00
2023-08-11T02:19:01.666Z,98973.69
2023-08-11T02:21:29.707Z,98967.91
2023-08-11T02:23:56.596Z,98969.13
2023-08-11T02:26:23.789Z,98970.09
2023-08-11T02:28:50.893Z,98970.19
2023-08-11T02:31:19.218Z,98971.41
2023-08-11T02:33:46.413Z,98971.09
2023-08-11T02:36:18.570Z,98970.50
2023-08-11T02:38:45.214Z,98963.47
2023-08-11T02:41:12.354Z,98962.19
2023-08-11T02:43:39.033Z,98967.03
2023-08-11T02:46:07.177Z,98955.53
2023-08-11T02:48:35.072Z,98954.38
2023-08-11T02:51:04.956Z,98956.03
2023-08-11T02:53:32.905Z,98949.38
2023-08-11T02:56:07.671Z,98956.25
2023-08-11T02:58:34.823Z,98949.63
2023-08-11T03:01:02.196Z,98951.69
2023-08-11T03:03:29.962Z,98957.13
2023-08-11T03:05:58.074Z,98950.00
2023-08-11T03:08:24.962Z,98946.25
2023-08-11T03:10:57.126Z,98949.66
2023-08-11T03:13:25.087Z,98959.06
2023-08-11T03:15:53.428Z,98951.22
2023-08-11T03:18:20.820Z,98947.13
2023-08-11T03:20:48.732Z,98953.63
2023-08-11T03:23:18.452Z,98946.28
2023-08-11T03:25:45.924Z,98942.41
2023-08-11T03:28:12.739Z,98954.00
2023-08-11T03:30:39.778Z,98942.28
2023-08-11T03:33:06.892Z,98945.28
2023-08-11T03:35:37.415Z,98950.34
2023-08-11T03:38:04.367Z,98946.97
2023-08-11T03:40:31.129Z,98945.66
2023-08-11T03:42:57.775Z,98950.59
2023-08-11T03:45:25.268Z,98949.06
2023-08-11T03:47:52.273Z,98956.19
2023-08-11T03:50:19.122Z,98946.53
2023-08-11T03:52:46.279Z,98946.75
2023-08-11T03:55:13.733Z,98952.34
2023-08-11T03:57:40.514Z,98950.63
2023-08-11T04:00:16.126Z,98944.47
2023-08-11T04:02:45.114Z,98942.72
2023-08-11T04:05:12.210Z,98946.06
2023-08-11T04:07:40.028Z,98958.00
2023-08-11T04:10:07.848Z,98944.25
2023-08-11T04:12:34.603Z,98943.31
2023-08-11T04:15:01.360Z,98945.59
2023-08-11T04:17:28.138Z,98948.63
2023-08-11T04:19:55.162Z,98941.03
2023-08-11T04:22:32.780Z,98941.50
2023-08-11T04:25:06.391Z,98944.03
2023-08-11T04:27:33.044Z,98947.78
2023-08-11T04:29:59.829Z,98944.16
2023-08-11T04:32:26.629Z,98953.09
2023-08-11T04:34:53.418Z,98958.50
2023-08-11T04:37:20.071Z,98951.84
2023-08-11T04:39:46.790Z,98942.94
2023-08-11T04:42:17.555Z,98955.69
2023-08-11T04:44:44.550Z,98956.44
2023-08-11T04:47:11.612Z,98957.41
2023-08-11T04:49:38.367Z,98960.16
2023-08-11T04:52:05.163Z,98960.53
2023-08-11T04:54:31.820Z,98957.66
2023-08-11T04:56:58.470Z,98961.88
2023-08-11T04:59:25.720Z,98961.28
2023-08-11T05:01:52.419Z,98967.03
2023-08-11T05:04:19.089Z,98964.84
2023-08-11T05:06:45.748Z,98963.28
2023-08-11T05:09:12.370Z,98963.88
2023-08-11T05:11:39.073Z,98964.47
2023-08-11T05:14:06.042Z,98970.00
2023-08-11T05:16:32.688Z,98965.28
2023-08-11T05:18:59.428Z,98971.44
2023-08-11T05:21:26.215Z,98973.25
2023-08-11T05:23:52.970Z,98971.56
2023-08-11T05:26:19.745Z,98962.53
2023-08-11T05:28:46.813Z,98964.66
2023-08-11T05:31:13.613Z,98966.94
2023-08-11T05:33:42.637Z,98956.59
2023-08-11T05:36:10.039Z,98956.25
2023-08-11T05:38:36.763Z,98953.97
2023-08-11T05:41:04.291Z,98962.41
2023-08-11T05:43:31.171Z,98967.22
2023-08-11T05:45:58.455Z,98960.41
2023-08-11T05:48:25.402Z,98957.13
2023-08-11T05:50:52.254Z,98948.84
2023-08-11T05:53:18.909Z,98956.28
2023-08-11T05:55:45.619Z,98954.56
2023-08-11T05:58:12.353Z,98945.38
2023-08-11T06:00:39.214Z,98949.84
2023-08-11T06:03:05.958Z,98946.81
2023-08-11T06:05:33.733Z,98945.59
2023-08-11T06:08:06.819Z,98948.44
2023-08-11T06:10:34.909Z,98950.44
2023-08-11T06:13:01.789Z,98953.31
2023-08-11T06:15:28.485Z,98953.06
2023-08-11T06:17:55.212Z,98957.53
2023-08-11T06:20:34.383Z,98954.22
2023-08-11T06:23:06.225Z,98957.47
2023-08-11T06:25:32.909Z,98954.84
2023-08-11T06:27:59.594Z,98953.78
2023-08-11T06:30:29.194Z,98955.56
2023-08-11T06:32:56.341Z,98959.25
2023-08-11T06:35:23.459Z,98963.47
2023-08-11T06:37:50.319Z,98961.66
2023-08-11T06:40:17.178Z,98961.00
2023-08-11T06:42:44.176Z,98959.91
2023-08-11T06:45:11.699Z,98956.56
2023-08-11T06:47:38.728Z,98963.72
2023-08-11T06:50:06.195Z,98959.44
2023-08-11T06:52:33.011Z,98955.22
2023-08-11T06:54:59.775Z,98957.50
2023-08-11T06:57:26.594Z,98954.16
2023-08-11T06:59:53.356Z,98963.16
2023-08-11T07:02:20.117Z,98953.66
2023-08-11T07:04:46.818Z,98960.94
2023-08-11T07:07:14.740Z,98952.38
2023-08-11T07:09:42.754Z,98957.00
2023-08-11T07:12:09.533Z,98954.47
2023-08-11T07:14:36.343Z,98954.06
2023-08-11T07:17:03.548Z,98954.50
2023-08-11T07:19:30.359Z,98949.56
2023-08-11T07:21:57.082Z,98952.25
2023-08-11T07:24:23.744Z,98949.31
2023-08-11T07:26:50.540Z,98946.22
2023-08-11T07:29:17.211Z,98958.81
2023-08-11T07:31:45.302Z,98954.88
2023-08-11T07:34:12.348Z,98959.22
2023-08-11T07:36:39.345Z,98956.13
2023-08-11T07:39:22.129Z,98961.34
2023-08-11T07:41:52.221Z,98960.75
2023-08-11T07:44:19.325Z,98959.22
2023-08-11T07:46:46.314Z,98959.66
2023-08-11T07:49:13.656Z,98959.91
2023-08-11T07:51:42.252Z,98962.00
2023-08-11T07:54:09.960Z,98957.22
2023-08-11T07:56:36.961Z,98962.56
2023-08-11T07:59:03.958Z,98962.66
2023-08-11T08:01:31.031Z,98963.06
2023-08-11T08:03:57.869Z,98959.66
2023-08-11T08:06:25.174Z,98958.25
2023-08-11T08:08:52.033Z,98962.00
2023-08-11T08:11:18.823Z,98960.41
2023-08-11T08:13:45.564Z,98959.28
2023-08-11T08:16:12.814Z,98960.81
2023-08-11T08:18:39.641Z,98961.91
2023-08-11T08:21:06.995Z,98954.47
2023-08-11T08:23:34.256Z,98953.88
2023-08-11T08:26:01.020Z,98959.75
2023-08-11T08:28:34.358Z,98954.66
2023-08-11T08:31:01.268Z,98954.91
2023-08-11T08:33:29.127Z,98951.75
2023-08-11T08:36:11.480Z,98956.28
2023-08-11T08:38:38.192Z,98950.34
2023-08-11T08:41:12.646Z,98952.00
2023-08-11T08:43:39.425Z,98952.78
2023-08-11T08:46:08.107Z,98956.97
2023-08-11T08:49:02.388Z,98951.25
2023-08-11T08:51:33.814Z,98955.84
2023-08-11T08:54:09.362Z,98955.91
2023-08-11T08:56:41.165Z,98955.31
2023-08-11T08:59:10.321Z,98951.66
2023-08-11T09:01:38.991Z,98943.88
2023-08-11T09:04:08.214Z,98951.72
2023-08-11T09:06:36.751Z,98946.06
2023-08-11T09:09:06.020Z,98951.94
2023-08-11T09:11:32.987Z,98951.22
2023-08-11T09:14:14.174Z,98955.03
2023-08-11T09:16:41.541Z,98953.25
2023-08-11T09:19:14.166Z,98955.25
2023-08-11T09:21:44.851Z,98956.91
2023-08-11T09:24:16.077Z,98963.34
2023-08-11T09:26:45.832Z,98950.63
2023-08-11T09:29:15.009Z,98944.31
2023-08-11T09:31:42.751Z,98952.00
2023-08-11T09:34:20.943Z,98943.63
2023-08-11T09:36:50.095Z,98940.69
2023-08-11T09:39:18.369Z,98942.38
2023-08-11T09:41:50.220Z,98934.97
2023-08-11T09:44:19.750Z,98936.22
2023-08-11T09:46:47.588Z,98945.47
2023-08-11T09:49:21.843Z,98935.44
2023-08-11T09:51:54.966Z,98940.97
2023-08-11T09:54:24.003Z,98939.47
2023-08-11T09:56:54.710Z,98942.03
2023-08-11T09:59:27.285Z,98947.88
2023-08-11T10:02:02.971Z,98944.69
2023-08-11T10:04:44.558Z,98947.38
2023-08-11T10:07:17.278Z,98952.75
2023-08-11T10:09:48.422Z,98952.31
2023-08-11T10:12:16.174Z,98944.69
2023-08-11T10:14:44.037Z,98940.88
2023-08-11T10:17:17.313Z,98947.03
2023-08-11T10:19:44.596Z,98947.41
2023-08-11T10:22:12.855Z,98941.41
2023-08-11T10:24:42.045Z,98938.25
2023-08-11T10:27:09.448Z,98940.63
2023-08-11T10:29:40.484Z,98940.13
2023-08-11T10:32:12.048Z,98940.31
2023-08-11T10:34:38.940Z,98939.31
2023-08-11T10:37:08.591Z,98945.19
2023-08-11T10:39:40.222Z,98939.84
2023-08-11T10:42:14.069Z,98937.34
2023-08-11T10:44:47.684Z,98938.34
2023-08-11T10:47:14.547Z,98941.91
2023-08-11T10:49:44.373Z,98934.19
2023-08-11T10:52:12.947Z,98936.22
2023-08-11T10:54:52.017Z,98932.88
2023-08-11T10:57:18.811Z,98934.28
2023-08-11T10:59:45.597Z,98923.56
2023-08-11T11:02:13.949Z,98924.91
2023-08-11T11:04:42.775Z,98917.88
2023-08-11T11:07:09.448Z,98915.19
2023-08-11T11:09:36.189Z,98919.06
2023-08-11T11:12:02.911Z,98914.19
2023-08-11T11:14:31.288Z,98909.19
2023-08-11T11:17:01.103Z,98901.44
2023-08-11T11:19:28.683Z,98905.97
2023-08-11T11:21:55.988Z,98906.41
2023-08-11T11:24:23.077Z,98912.34
2023-08-11T11:26:50.089Z,98910.72
2023-08-11T11:29:22.217Z,98904.69
2023-08-11T11:31:49.070Z,98902.59
2023-08-11T11:34:15.912Z,98914.28
2023-08-11T11:36:43.147Z,98904.97
2023-08-11T11:39:11.056Z,98904.25
2023-08-11T11:41:37.758Z,98911.09
2023-08-11T11:44:04.865Z,98910.56
2023-08-11T11:46:34.011Z,98902.94
2023-08-11T11:49:12.664Z,98910.03
2023-08-11T11:51:47.552Z,98909.31
2023-08-11T11:54:14.473Z,98902.94
2023-08-11T11:56:47.132Z,98900.72
2023-08-11T11:59:17.438Z,98899.69
2023-08-11T12:01:44.682Z,98906.09
2023-08-11T12:04:11.958Z,98907.44
2023-08-11T12:06:38.832Z,98912.34
2023-08-11T12:09:11.690Z,98913.25
2023-08-11T12:11:41.778Z,98899.78
2023-08-11T12:14:08.814Z,98899.34
2023-08-11T12:16:37.202Z,98885.59
2023-08-11T12:19:04.787Z,98889.75
2023-08-11T12:21:34.781Z,98885.16
2023-08-11T12:24:01.809Z,98893.06
2023-08-11T12:26:29.675Z,98879.72
2023-08-11T12:28:59.556Z,98886.59
2023-08-11T12:31:26.343Z,98887.06
2023-08-11T12:33:53.130Z,98896.34
2023-08-11T12:36:20.151Z,98882.25
2023-08-11T12:38:48.891Z,98891.03
2023-08-11T12:41:19.028Z,98883.75
2023-08-11T12:43:45.775Z,98880.13
2023-08-11T12:46:12.662Z,98883.59
2023-08-11T12:48:39.404Z,98887.94
2023-08-11T12:51:06.688Z,98884.00
2023-08-11T12:53:33.428Z,98885.34
2023-08-11T12:56:00.237Z,98883.88
2023-08-11T12:58:27.773Z,98876.09
2023-08-11T13:00:54.457Z,98878.66
2023-08-11T13:03:21.267Z,98871.69
2023-08-11T13:05:48.888Z,98870.88
2023-08-11T13:08:15.566Z,98865.72
2023-08-11T13:10:42.450Z,98869.06
2023-08-11T13:13:10.825Z,98868.47
2023-08-11T13:15:39.700Z,98861.66
2023-08-11T13:18:06.457Z,98860.47
2023-08-11T13:20:33.248Z,98868.28
2023-08-11T13:22:59.930Z,98861.28
2023-08-11T13:25:26.665Z,98860.97
2023-08-11T13:27:53.374Z,98854.41
2023-08-11T13:30:22.344Z,98862.63
2023-08-11T13:32:49.222Z,98862.63
2023-08-11T13:35:25.350Z,98864.38
2023-08-11T13:37:52.152Z,98860.44
2023-08-11T13:40:20.177Z,98863.81
2023-08-11T13:42:46.870Z,98863.19
2023-08-11T13:45:14.593Z,98857.84
2023-08-11T13:47:41.497Z,98853.34
2023-08-11T13:50:08.880Z,98854.91
2023-08-11T13:52:35.628Z,98843.63
2023-08-11T13:55:07.200Z,98832.38
2023-08-11T13:57:35.309Z,98823.50
2023-08-11T14:00:02.044Z,98819.28
2023-08-11T14:02:31.949Z,98827.91
2023-08-11T14:04:58.764Z,98835.03
2023-08-11T14:07:30.644Z,98828.16
2023-08-11T14:09:59.403Z,98835.63
2023-08-11T14:12:26.135Z,98822.25
2023-08-11T14:14:52.769Z,98832.41
2023-08-11T14:17:19.493Z,98828.47
2023-08-11T14:19:46.151Z,98832.06
2023-08-11T14:22:12.824Z,98826.56
2023-08-11T14:24:39.563Z,98826.63
2023-08-11T14:27:07.122Z,98814.25
2023-08-11T14:29:33.772Z,98816.06
2023-08-11T14:32:13.841Z,98814.69
2023-08-11T14:34:45.319Z,98814.16
2023-08-11T14:37:15.147Z,98807.16
2023-08-11T14:39:43.713Z,98810.78
2023-08-11T14:42:10.525Z,98802.94
2023-08-11T14:44:37.644Z,98803.84
2023-08-11T14:47:04.382Z,98804.53
2023-08-11T14:49:31.100Z,98808.09
2023-08-11T14:51:57.775Z,98796.19
2023-08-11T14:54:27.744Z,98800.13
2023-08-11T14:56:55.599Z,98797.34
2023-08-11T14:59:22.361Z,98794.13
2023-08-11T15:01:49.170Z,98800.06
2023-08-11T15:04:15.887Z,98797.28
2023-08-11T15:06:42.576Z,98792.59
2023-08-11T15:09:09.488Z,98796.22
2023-08-11T15:11:36.762Z,98790.91
2023-08-11T15:14:03.679Z,98794.22
2023-08-11T15:16:30.726Z,98785.59
2023-08-11T15:18:57.519Z,98789.03
2023-08-11T15:21:25.360Z,98790.38
2023-08-11T15:23:52.066Z,98783.94
2023-08-11T15:26:19.544Z,98776.31
2023-08-11T15:28:46.206Z,98780.88
2023-08-11T15:31:13.018Z,98783.81
2023-08-11T15:33:39.819Z,98784.91
2023-08-11T15:36:06.554Z,98774.72
2023-08-11T15:38:33.330Z,98781.38
2023-08-11T15:41:03.764Z,98767.31
2023-08-11T15:43:32.964Z,98765.56
2023-08-11T15:45:59.926Z,98762.75
2023-08-11T15:48:28.618Z,98770.66
2023-08-11T15:50:55.633Z,98767.75
2023-08-11T15:53:22.650Z,98754.94
2023-08-11T15:55:49.432Z,98754.50
2023-08-11T15:58:16.253Z,98755.53
2023-08-11T16:00:43.591Z,98748.47
2023-08-11T16:03:10.744Z,98754.78
2023-08-11T16:05:37.741Z,98747.06
2023-08-11T16:08:05.300Z,98744.75
2023-08-11T16:10:37.682Z,98748.84
2023-08-11T16:13:04.855Z,98745.16
2023-08-11T16:15:32.254Z,98741.31
2023-08-11T16:17:58.929Z,98742.72
2023-08-11T16:20:25.777Z,98735.91
2023-08-11T16:22:53.231Z,98729.00
2023-08-11T16:25:20.204Z,98727.13
2023-08-11T16:27:46.861Z,98732.75
2023-08-11T16:30:14.139Z,98726.84
2023-08-11T16:32:40.871Z,98737.91
2023-08-11T16:35:09.173Z,98721.19
2023-08-11T16:37:36.051Z,98728.69
2023-08-11T16:40:03.897Z,98733.63
2023-08-11T16:42:30.641Z,98721.97
2023-08-11T16:44:57.325Z,98722.13
2023-08-11T16:47:24.034Z,98723.28
2023-08-11T16:49:51.529Z,98723.91
2023-08-11T16:52:18.174Z,98718.03
2023-08-11T16:54:44.874Z,98729.03
2023-08-11T16:57:13.520Z,98716.28
2023-08-11T16:59:40.434Z,98717.50
2023-08-11T17:02:07.219Z,98714.88
2023-08-11T17:04:33.921Z,98717.72
2023-08-11T17:07:00.605Z,98726.19
2023-08-11T17:09:27.330Z,98721.66
2023-08-11T17:11:54.012Z,98727.03
2023-08-11T17:14:20.663Z,98720.13
2023-08-11T17:16:47.375Z,98724.50
2023-08-11T17:19:14.013Z,98723.41
2023-08-11T17:21:42.641Z,98713.53
2023-08-11T17:24:09.274Z,98710.41
2023-08-11T17:26:35.955Z,98710.72
2023-08-11T17:29:02.594Z,98713.06
2023-08-11T17:31:29.388Z,98720.47
2023-08-11T17:33:56.148Z,98711.56
2023-08-11T17:36:27.376Z,98718.91
2023-08-11T17:38:55.995Z,98712.72
2023-08-11T17:41:25.147Z,98718.78
2023-08-11T17:43:52.698Z,98719.91
2023-08-11T17:46:20.716Z,98722.41
2023-08-11T17:48:47.551Z,98720.13
2023-08-11T17:51:14.335Z,98713.91
2023-08-11T17:53:41.649Z,98716.22
2023-08-11T17:56:09.237Z,98716.38
2023-08-11T17:58:35.946Z,98708.69
2023-08-11T18:01:02.693Z,98712.22
2023-08-11T18:03:29.532Z,98710.75
2023-08-11T18:05:56.698Z,98714.28
2023-08-11T18:08:23.425Z,98719.59
2023-08-11T18:10:50.176Z,98720.81
2023-08-11T18:13:17.651Z,98715.38
2023-08-11T18:15:44.486Z,98730.47
2023-08-11T18:18:11.180Z,98722.47
2023-08-11T18:20:37.914Z,98722.22
2023-08-11T18:23:04.616Z,98727.34
2023-08-11T18:25:31.497Z,98733.28
2023-08-11T18:27:58.252Z,98734.25
2023-08-11T18:30:24.885Z,98734.63
2023-08-11T18:32:51.627Z,98735.94
2023-08-11T18:35:18.415Z,98740.66
2023-08-11T18:37:45.083Z,98735.22
2023-08-11T18:40:12.272Z,98729.75
2023-08-11T18:42:39.043Z,98743.38
2023-08-11T18:45:07.275Z,98740.81
2023-08-11T18:47:35.166Z,98741.31
2023-08-11T18:50:02.073Z,98747.63
2023-08-11T18:52:28.689Z,98744.22
2023-08-11T18:54:55.391Z,98740.63
2023-08-11T18:57:22.107Z,98753.16
2023-08-11T18:59:48.838Z,98746.41
2023-08-11T19:02:16.040Z,98753.41
2023-08-11T19:04:42.889Z,98749.16
2023-08-11T19:07:09.606Z,98754.91
2023-08-11T19:09:36.338Z,98757.50
2023-08-11T19:12:03.070Z,98755.59
2023-08-11T19:14:30.119Z,98750.28
2023-08-11T19:16:57.580Z,98744.59
2023-08-11T19:19:24.595Z,98746.56
2023-08-11T19:21:51.218Z,98748.97
2023-08-11T19:24:17.990Z,98748.88
2023-08-11T19:26:45.833Z,98747.94
2023-08-11T19:29:13.493Z,98753.59
2023-08-11T19:31:40.335Z,98748.94
2023-08-11T19:34:07.091Z,98747.84
2023-08-11T19:36:35.121Z,98752.03
2023-08-11T19:39:03.682Z,98752.31
2023-08-11T19:41:30.323Z,98748.13
2023-08-11T19:43:57.546Z,98752.41
2023-08-11T19:46:24.372Z,98747.19
2023-08-11T19:48:51.105Z,98748.56
2023-08-11T19:51:17.792Z,98749.94
2023-08-11T19:53:44.987Z,98750.69
2023-08-11T19:56:11.672Z,98755.09
2023-08-11T19:58:38.348Z,98754.97
2023-08-11T20:01:07.060Z,98749.47
2023-08-11T20:03:33.860Z,98755.22
2023-08-11T20:06:01.058Z,98754.56
2023-08-11T20:08:27.833Z,98748.06
2023-08-11T20:10:54.514Z,98745.84
2023-08-11T20:13:21.235Z,98736.50
2023-08-11T20:15:48.090Z,98739.56
2023-08-11T20:18:14.996Z,98743.78
2023-08-11T20:20:45.510Z,98732.44
2023-08-11T20:23:12.263Z,98737.81
2023-08-11T20:25:39.230Z,98730.44
2023-08-11T20:28:06.373Z,98724.59
2023-08-11T20:30:33.176Z,98735.69
2023-08-11T20:33:00.183Z,98731.69
2023-08-11T20:35:28.659Z,98722.50
2023-08-11T20:37:58.791Z,98721.72
2023-08-11T20:40:25.474Z,98722.22
2023-08-11T20:42:52.238Z,98717.38
2023-08-11T20:45:19.060Z,98714.88
2023-08-11T20:47:45.744Z,98715.22
2023-08-11T20:50:12.488Z,98716.91
2023-08-11T20:52:39.220Z,98717.41
2023-08-11T20:55:06.572Z,98716.09
2023-08-11T20:57:33.253Z,98719.13
2023-08-11T20:59:59.911Z,98719.13
2023-08-11T21:02:26.587Z,98719.81
2023-08-11T21:04:53.212Z,98710.47
2023-08-11T21:07:19.879Z,98715.34
2023-08-11T21:09:46.619Z,98720.19
2023-08-11T21:12:13.316Z,98717.66
2023-08-11T21:14:39.942Z,98715.50
2023-08-11T21:17:09.292Z,98715.19
2023-08-11T21:19:36.385Z,98715.03
2023-08-11T21:22:03.230Z,98713.53
2023-08-11T21:24:29.921Z,98711.22
2023-08-11T21:26:56.638Z,98710.72
2023-08-11T21:29:23.352Z,98709.19
2023-08-11T21:31:50.128Z,98710.22
2023-08-11T21:34:16.854Z,98715.91
2023-08-11T21:36:43.628Z,98717.94
2023-08-11T21:39:11.048Z,98714.56
2023-08-11T21:41:37.771Z,98713.91
2023-08-11T21:44:04.804Z,98716.72
2023-08-11T21:46:32.089Z,98715.06
2023-08-11T21:48:58.956Z,98712.72
2023-08-11T21:51:26.464Z,98716.75
2023-08-11T21:53:53.281Z,98719.25
2023-08-11T21:56:19.960Z,98719.09
2023-08-11T21:58:46.724Z,98718.25
2023-08-11T22:01:13.671Z,98721.94
2023-08-11T22:03:40.353Z,98719.44
2023-08-11T22:06:07.222Z,98720.25
2023-08-11T22:08:34.053Z,98719.56
2023-08-11T22:11:00.797Z,98718.25
2023-08-11T22:13:27.647Z,98714.22
2023-08-11T22:15:54.415Z,98710.91
2023-08-11T22:18:21.119Z,98700.50
2023-08-11T22:20:47.830Z,98707.91
2023-08-11T22:23:14.522Z,98704.53
2023-08-11T22:25:41.236Z,98703.69
2023-08-11T22:28:08.563Z,98706.53
2023-08-11T22:30:36.062Z,98705.88
2023-08-11T22:33:03.472Z,98705.69
2023-08-11T22:35:30.376Z,98702.03
2023-08-11T22:37:57.874Z,98703.38
2023-08-11T22:40:24.558Z,98704.34
2023-08-11T22:42:51.248Z,98697.50
2023-08-11T22:45:18.142Z,98700.50
2023-08-11T22:47:45.026Z,98695.81
2023-08-11T22:50:11.804Z,98696.13
2023-08-11T22:52:38.481Z,98700.66
2023-08-11T22:55:05.735Z,98698.16
2023-08-11T22:57:32.376Z,98698.34
2023-08-11T22:59:59.104Z,98695.81
2023-08-11T23:02:25.956Z,98696.63
2023-08-11T23:04:55.471Z,98696.81
2023-08-11T23:07:25.766Z,98701.34
2023-08-11T23:09:52.480Z,98693.31
2023-08-11T23:12:19.098Z,98703.16
2023-08-11T23:14:45.797Z,98703.59
2023-08-11T23:17:12.744Z,98701.09
2023-08-11T23:19:39.765Z,98703.47
2023-08-11T23:22:06.533Z,98703.47
2023-08-11T23:24:33.919Z,98712.97
2023-08-11T23:27:01.803Z,98704.47
2023-08-11T23:29:28.439Z,98721.00
2023-08-11T23:31:55.225Z,98717.16
2023-08-11T23:34:21.992Z,98721.81
2023-08-11T23:36:48.691Z,98714.31
2023-08-11T23:39:15.344Z,98703.13
2023-08-11T23:41:41.995Z,98703.97
2023-08-11T23:44:08.693Z,98707.63
2023-08-11T23:46:35.421Z,98706.47
2023-08-11T23:49:02.106Z,98706.47
2023-08-11T23:51:28.794Z,98711.00
2023-08-11T23:53:57.390Z,98705.47
2023-08-11T23:56:24.391Z,98706.44
2023-08-11T23:58:52.073Z,98713.97
